Time;durP1;ratioP1;P1;durP2;ratioP2;P2;SDS_P1;SDS_P2;PMS_P1;PMS_P2;Temp;Humidity;BMP_temperature;BMP_pressure;BME280_temperature;BME280_humidity;BME280_pressure;Samples;Min_cycle;Max_cycle;Signal;HPM_P1;HPM_P2
2023/07/17 00:00:28;;;;;;;2.83;2.65;;;17.90;99.90;;;;;;6036279;23;20015;-90
2023/07/17 00:03:00;;;;;;;2.95;2.75;;;17.90;99.90;;;;;;6037189;23;20083;-89
2023/07/17 00:08:27;;;;;;;3.10;2.90;;;17.90;99.90;;;;;;6037101;23;20023;-90
2023/07/17 00:10:58;;;;;;;3.35;3.15;;;17.80;99.90;;;;;;6012978;23;20026;-89
2023/07/17 00:13:26;;;;;;;3.58;3.38;;;17.80;99.90;;;;;;6039253;23;20106;-92
2023/07/17 00:16:02;;;;;;;3.45;3.25;;;17.80;99.90;;;;;;6038155;23;20051;-91
2023/07/17 00:18:30;;;;;;;3.47;3.28;;;17.70;99.90;;;;;;6037924;23;20339;-89
2023/07/17 00:21:05;;;;;;;3.55;3.35;;;17.80;99.90;;;;;;6016661;23;20022;-89
2023/07/17 00:23:40;;;;;;;3.42;3.22;;;17.70;99.90;;;;;;6037651;23;20033;-91
2023/07/17 00:26:08;;;;;;;4.63;4.32;;;17.70;99.90;;;;;;6016644;23;20029;-88
2023/07/17 00:28:37;;;;;;;4.85;4.55;;;17.70;99.90;;;;;;6061571;23;20143;-89
2023/07/17 00:31:06;;;;;;;4.45;4.15;;;17.70;99.90;;;;;;6060931;23;20114;-88
2023/07/17 00:33:35;;;;;;;4.40;4.10;;;17.70;99.90;;;;;;6036140;23;20429;-90
2023/07/17 00:36:06;;;;;;;4.63;4.32;;;17.80;99.90;;;;;;6037785;23;20019;-90
2023/07/17 00:38:38;;;;;;;3.75;3.55;;;17.80;99.90;;;;;;6037255;23;20054;-93
2023/07/17 00:41:07;;;;;;;3.63;3.42;;;17.80;99.90;;;;;;6038296;23;20018;-88
2023/07/17 00:43:44;;;;;;;3.50;3.30;;;17.80;99.90;;;;;;6035682;23;20098;-90
2023/07/17 00:46:34;;;;;;;4.43;4.13;;;17.70;99.90;;;;;;6037851;23;20106;-92
2023/07/17 00:49:10;;;;;;;4.55;4.25;;;17.80;99.90;;;;;;6035486;23;20019;-90
2023/07/17 00:51:46;;;;;;;4.68;4.38;;;17.80;99.90;;;;;;6011634;23;20027;-89
2023/07/17 00:54:25;;;;;;;4.13;3.83;;;17.80;99.90;;;;;;6011394;23;20412;-92
2023/07/17 00:56:56;;;;;;;4.68;4.38;;;17.70;99.90;;;;;;6060429;23;20019;-86
2023/07/17 00:59:26;;;;;;;3.85;3.65;;;17.80;99.90;;;;;;6013387;23;20517;-86
2023/07/17 01:01:55;;;;;;;4.00;3.78;;;17.80;99.90;;;;;;6011482;23;20042;-86
2023/07/17 01:04:29;;;;;;;4.18;3.88;;;17.70;99.90;;;;;;6013433;23;20638;-89
2023/07/17 01:07:07;;;;;;;3.75;3.55;;;17.70;99.90;;;;;;6037322;23;20354;-88
2023/07/17 01:09:39;;;;;;;4.53;4.22;;;17.70;99.90;;;;;;6012443;23;20532;-88
2023/07/17 01:12:22;;;;;;;4.22;3.92;;;17.70;99.90;;;;;;6013763;23;20031;-86
2023/07/17 01:14:51;;;;;;;3.95;3.72;;;17.60;99.90;;;;;;6061222;23;20078;-88
2023/07/17 01:17:26;;;;;;;4.40;4.10;;;17.60;99.90;;;;;;6038864;23;20047;-90
2023/07/17 01:19:58;;;;;;;3.92;3.72;;;17.60;99.90;;;;;;6013497;23;20339;-89
2023/07/17 01:22:32;;;;;;;3.70;3.50;;;17.60;99.90;;;;;;6014035;23;20030;-88
2023/07/17 01:25:07;;;;;;;4.22;3.92;;;17.40;99.90;;;;;;6010177;23;20031;-89
2023/07/17 01:27:51;;;;;;;4.22;3.92;;;17.50;99.90;;;;;;6014696;23;20051;-89
2023/07/17 01:30:33;;;;;;;4.45;4.15;;;17.50;99.90;;;;;;6013646;23;20026;-90
2023/07/17 01:33:31;;;;;;;4.25;3.95;;;17.40;99.90;;;;;;6014595;23;20041;-88
2023/07/17 01:36:07;;;;;;;4.85;4.55;;;17.40;99.90;;;;;;6051076;23;20411;-90
2023/07/17 01:38:33;;;;;;;4.43;4.13;;;17.40;99.90;;;;;;6014383;23;20097;-90
2023/07/17 01:41:05;;;;;;;4.20;3.90;;;17.30;99.90;;;;;;6011754;23;20653;-89
2023/07/17 01:43:34;;;;;;;4.20;3.90;;;17.20;99.90;;;;;;6036864;23;20027;-88
2023/07/17 01:46:05;;;;;;;4.25;3.95;;;17.30;99.90;;;;;;6038212;23;20023;-89
2023/07/17 01:48:44;;;;;;;;;;;;;;;;;;;;;
2023/07/17 01:51:26;;;;;;;3.80;3.60;;;17.20;99.90;;;;;;6037721;23;20398;-90
2023/07/17 01:53:56;;;;;;;3.75;3.55;;;17.20;99.90;;;;;;6013700;23;20038;-90
2023/07/17 01:56:25;;;;;;;4.25;3.95;;;17.00;99.90;;;;;;6059363;23;20019;-88
2023/07/17 01:59:02;;;;;;;3.85;3.65;;;17.10;99.90;;;;;;6012939;23;20024;-89
2023/07/17 02:01:37;;;;;;;3.58;3.38;;;17.00;99.90;;;;;;6012926;23;20025;-90
2023/07/17 02:04:06;;;;;;;3.45;3.25;;;16.90;99.90;;;;;;6032449;23;20064;-89
2023/07/17 02:06:40;;;;;;;3.55;3.35;;;16.90;99.90;;;;;;6033187;23;20103;-88
2023/07/17 02:09:18;;;;;;;5.10;4.80;;;16.90;99.90;;;;;;6013030;23;20020;-89
2023/07/17 02:11:44;;;;;;;3.90;3.70;;;16.90;99.90;;;;;;6035924;23;20016;-88
2023/07/17 02:14:12;;;;;;;3.60;3.40;;;16.80;99.90;;;;;;6037171;23;20418;-92
2023/07/17 02:17:07;;;;;;;3.83;3.63;;;16.80;99.90;;;;;;6015301;23;20027;-87
2023/07/17 02:19:52;;;;;;;3.58;3.38;;;16.70;99.90;;;;;;5900283;24;20508;-92
2023/07/17 02:22:28;;;;;;;3.50;3.30;;;16.70;99.90;;;;;;5901964;24;20402;-91
2023/07/17 02:25:13;;;;;;;3.92;3.70;;;16.60;99.90;;;;;;5899774;24;20032;-90
2023/07/17 02:27:39;;;;;;;3.63;3.42;;;16.60;99.90;;;;;;5901136;24;20029;-89
2023/07/17 02:33:05;;;;;;;3.20;3.00;;;16.40;99.90;;;;;;5916161;24;20119;-89
2023/07/17 02:35:36;;;;;;;3.20;3.00;;;16.30;99.90;;;;;;5902003;24;20398;-90
2023/07/17 02:38:02;;;;;;;2.90;2.70;;;16.20;99.90;;;;;;5996217;23;20027;-90
2023/07/17 02:40:31;;;;;;;2.72;2.58;;;16.20;99.90;;;;;;6013026;23;20030;-92
2023/07/17 02:42:59;;;;;;;2.55;2.45;;;16.10;99.90;;;;;;6013348;23;20391;-90
2023/07/17 02:45:29;;;;;;;2.70;2.60;;;16.20;99.90;;;;;;6012525;23;20058;-88
2023/07/17 02:47:54;;;;;;;2.60;2.50;;;16.10;99.90;;;;;;6013342;23;20023;-89
2023/07/17 02:50:23;;;;;;;2.35;2.25;;;16.00;99.90;;;;;;6013375;23;20472;-89
2023/07/17 02:52:52;;;;;;;2.30;2.20;;;16.00;99.90;;;;;;6010417;23;20023;-87
2023/07/17 02:55:21;;;;;;;2.30;2.20;;;16.00;99.90;;;;;;6013298;23;20023;-88
2023/07/17 02:57:49;;;;;;;2.30;2.20;;;16.00;99.90;;;;;;6035912;23;20023;-90
2023/07/17 03:00:23;;;;;;;2.35;2.25;;;15.90;99.90;;;;;;6013272;23;20439;-92
2023/07/17 03:02:51;;;;;;;2.25;2.15;;;15.90;99.90;;;;;;6014408;23;20027;-90
2023/07/17 03:05:23;;;;;;;2.15;2.05;;;15.90;99.90;;;;;;6038374;23;20077;-94
2023/07/17 03:07:54;;;;;;;2.30;2.20;;;15.80;99.90;;;;;;6014876;23;20025;-92
2023/07/17 03:10:22;;;;;;;2.22;2.13;;;15.80;99.90;;;;;;6038006;23;20065;-89
2023/07/17 03:12:48;;;;;;;2.13;2.03;;;15.80;99.90;;;;;;6012740;23;20023;-89
2023/07/17 03:15:14;;;;;;;2.00;1.90;;;15.70;99.90;;;;;;6036556;23;20026;-91
2023/07/17 03:17:42;;;;;;;2.08;1.98;;;15.80;99.90;;;;;;6014662;23;20030;-90
2023/07/17 03:20:10;;;;;;;1.95;1.85;;;15.80;99.90;;;;;;6014328;23;20094;-95
2023/07/17 03:22:37;;;;;;;1.92;1.83;;;15.70;99.90;;;;;;6013368;23;20015;-89
2023/07/17 03:25:05;;;;;;;2.00;1.90;;;15.70;99.90;;;;;;6014315;23;20054;-88
2023/07/17 03:27:31;;;;;;;2.00;1.90;;;15.70;99.90;;;;;;6059373;23;20324;-87
2023/07/17 03:29:56;;;;;;;2.00;1.90;;;15.60;99.90;;;;;;6060395;23;20059;-91
2023/07/17 03:32:25;;;;;;;1.90;1.80;;;15.50;99.90;;;;;;6013953;23;20022;-92
2023/07/17 03:34:51;;;;;;;1.90;1.80;;;15.40;99.90;;;;;;6012141;23;20015;-89
2023/07/17 03:37:17;;;;;;;2.00;1.90;;;15.40;99.90;;;;;;6013179;23;20030;-88
2023/07/17 03:39:42;;;;;;;1.90;1.80;;;15.40;99.90;;;;;;6037107;23;20058;-87
2023/07/17 03:42:11;;;;;;;1.90;1.80;;;15.40;99.90;;;;;;6012186;23;20054;-87
2023/07/17 03:44:37;;;;;;;1.90;1.80;;;15.30;99.90;;;;;;6012562;23;20071;-88
2023/07/17 03:47:04;;;;;;;2.00;1.90;;;15.30;99.90;;;;;;6035911;23;20023;-89
2023/07/17 03:49:30;;;;;;;2.00;1.90;;;15.30;99.90;;;;;;6035009;23;20026;-89
2023/07/17 03:51:57;;;;;;;2.10;2.00;;;15.30;99.90;;;;;;6012204;23;20023;-88
2023/07/17 03:54:23;;;;;;;2.00;1.90;;;15.40;99.90;;;;;;6012849;23;20030;-87
2023/07/17 03:56:49;;;;;;;2.25;2.15;;;15.30;99.90;;;;;;6059127;23;20029;-89
2023/07/17 03:59:25;;;;;;;2.15;2.05;;;15.30;99.90;;;;;;6014514;23;20409;-95
2023/07/17 04:01:53;;;;;;;2.15;2.05;;;15.30;99.90;;;;;;6013939;23;20022;-90
2023/07/17 04:04:34;;;;;;;2.15;2.05;;;15.30;99.90;;;;;;6039092;23;20102;-95
2023/07/17 04:07:00;;;;;;;2.22;2.13;;;15.30;99.90;;;;;;6034155;23;20035;-91
2023/07/17 04:09:28;;;;;;;2.10;2.00;;;15.40;99.90;;;;;;6014036;23;20105;-89
2023/07/17 04:11:57;;;;;;;1.48;1.38;;;15.40;99.90;;;;;;6037431;23;20019;-92
2023/07/17 04:14:23;;;;;;;1.70;1.60;;;15.50;99.90;;;;;;6014145;23;20019;-95
2023/07/17 04:16:51;;;;;;;1.58;1.48;;;15.40;99.90;;;;;;6014541;23;20110;-92
2023/07/17 04:19:25;;;;;;;1.50;1.40;;;15.50;99.90;;;;;;6039139;23;20059;-93
2023/07/17 04:21:59;;;;;;;1.42;1.35;;;15.50;99.90;;;;;;6015950;23;20019;-91
2023/07/17 04:24:28;;;;;;;1.73;1.63;;;15.50;99.90;;;;;;6061772;23;20015;-94
2023/07/17 04:26:54;;;;;;;1.50;1.40;;;15.60;99.90;;;;;;6013642;23;20019;-90
2023/07/17 04:29:29;;;;;;;1.40;1.35;;;15.60;99.90;;;;;;6013931;23;20027;-93
2023/07/17 04:32:03;;;;;;;1.30;1.30;;;15.70;99.90;;;;;;6013355;23;20081;-89
2023/07/17 04:34:32;;;;;;;1.50;1.40;;;15.60;99.90;;;;;;6035272;23;20022;-88
2023/07/17 04:37:00;;;;;;;1.27;1.27;;;15.70;99.90;;;;;;6036705;23;20062;-92
2023/07/17 04:39:35;;;;;;;1.30;1.30;;;15.70;99.90;;;;;;6012261;23;20015;-94
2023/07/17 04:42:04;;;;;;;1.30;1.30;;;15.80;99.90;;;;;;6035029;23;20447;-91
2023/07/17 04:44:30;;;;;;;1.27;1.27;;;15.80;99.90;;;;;;6012631;23;20023;-89
2023/07/17 04:46:55;;;;;;;1.30;1.30;;;15.80;99.90;;;;;;6010093;23;20672;-90
2023/07/17 04:49:23;;;;;;;1.25;1.25;;;15.90;99.90;;;;;;6010745;23;20565;-90
2023/07/17 04:51:52;;;;;;;1.27;1.27;;;15.90;99.90;;;;;;6011736;23;20030;-90
2023/07/17 04:54:20;;;;;;;0.90;0.90;;;16.00;99.90;;;;;;6008844;23;20344;-87
2023/07/17 04:56:54;;;;;;;0.95;0.95;;;17.70;99.90;;;;;;6057448;23;20069;-93
2023/07/17 04:59:23;;;;;;;1.60;1.50;;;19.00;99.90;;;;;;6011393;23;20026;-88
2023/07/17 05:01:48;;;;;;;1.52;1.42;;;19.80;99.90;;;;;;6037284;23;20018;-90
2023/07/17 05:04:20;;;;;;;1.80;1.70;;;20.40;99.90;;;;;;6012630;23;20065;-87
2023/07/17 05:06:54;;;;;;;1.52;1.42;;;20.90;99.90;;;;;;6035837;23;20019;-93
2023/07/17 05:09:22;;;;;;;1.70;1.60;;;21.10;99.90;;;;;;5988369;23;20124;-84
2023/07/17 05:11:54;;;;;;;2.00;1.90;;;21.60;99.90;;;;;;6062383;23;20053;-92
2023/07/17 05:14:23;;;;;;;1.90;1.80;;;22.20;99.90;;;;;;6015031;23;20027;-89
2023/07/17 05:16:57;;;;;;;1.50;1.40;;;22.70;99.90;;;;;;6035628;23;20130;-89
2023/07/17 05:19:23;;;;;;;1.75;1.65;;;22.60;99.90;;;;;;6061084;23;20060;-85
2023/07/17 05:25:01;;;;;;;1.23;1.23;;;23.00;99.90;;;;;;5978491;23;20101;-90
2023/07/17 05:27:33;;;;;;;1.30;1.30;;;22.90;99.90;;;;;;5981099;23;20714;-88
2023/07/17 05:29:59;;;;;;;1.60;1.50;;;23.00;99.90;;;;;;5992745;23;20058;-83
2023/07/17 05:32:27;;;;;;;1.55;1.45;;;23.00;99.90;;;;;;6059430;23;20438;-86
2023/07/17 05:34:54;;;;;;;1.58;1.48;;;22.70;99.90;;;;;;6060213;23;20018;-85
2023/07/17 05:37:25;;;;;;;1.50;1.40;;;23.30;99.90;;;;;;6060239;23;20045;-86
2023/07/17 05:40:26;;;;;;;1.42;1.38;;;22.60;99.90;;;;;;6012143;23;20026;-88
2023/07/17 05:43:01;;;;;;;1.60;1.50;;;23.40;99.90;;;;;;5994074;23;20019;-86
2023/07/17 05:45:29;;;;;;;1.60;1.50;;;23.10;99.90;;;;;;6012191;23;20125;-90
2023/07/17 05:48:03;;;;;;;1.95;1.85;;;23.40;99.90;;;;;;6012597;23;20050;-88
2023/07/17 05:50:36;;;;;;;1.95;1.85;;;23.10;99.90;;;;;;6037774;23;20062;-87
2023/07/17 05:53:10;;;;;;;2.20;2.10;;;22.60;99.90;;;;;;6013289;23;20019;-89
2023/07/17 05:55:36;;;;;;;2.50;2.40;;;21.10;99.90;;;;;;6012968;23;20019;-85
2023/07/17 05:58:05;;;;;;;3.10;2.90;;;20.00;99.90;;;;;;6008469;23;20038;-87
2023/07/17 06:00:30;;;;;;;3.30;3.10;;;19.60;99.90;;;;;;6036330;23;20098;-87
2023/07/17 06:02:56;;;;;;;3.05;2.85;;;19.40;99.90;;;;;;6059718;23;20600;-86
2023/07/17 06:05:22;;;;;;;3.33;3.13;;;19.50;99.90;;;;;;6060628;23;20030;-86
2023/07/17 06:07:56;;;;;;;3.35;3.15;;;19.40;99.90;;;;;;6013163;23;20102;-89
2023/07/17 06:10:25;;;;;;;3.22;3.03;;;19.60;99.90;;;;;;6035011;23;20022;-88
2023/07/17 06:12:57;;;;;;;3.47;3.28;;;19.40;99.90;;;;;;6011574;23;20019;-86
2023/07/17 06:15:32;;;;;;;3.25;3.05;;;19.20;99.90;;;;;;6035971;23;20018;-86
2023/07/17 06:18:26;;;;;;;3.30;3.10;;;19.50;99.90;;;;;;6061959;23;20078;-87
2023/07/17 06:20:55;;;;;;;3.22;3.03;;;19.40;99.90;;;;;;5948902;24;20016;-86
2023/07/17 06:23:21;;;;;;;1.70;1.60;;;19.60;99.90;;;;;;6024133;23;20029;-84
2023/07/17 06:25:46;;;;;;;3.03;2.83;;;19.10;99.90;;;;;;6060097;23;20027;-84
2023/07/17 06:28:36;;;;;;;2.97;2.78;;;19.40;99.90;;;;;;6012639;23;20411;-88
2023/07/17 06:34:06;;;;;;;3.05;2.85;;;19.70;99.90;;;;;;6031648;23;20086;-92
2023/07/17 06:36:32;;;;;;;1.73;1.63;;;19.80;99.90;;;;;;6014205;23;20075;-92
2023/07/17 06:39:01;;;;;;;2.33;2.22;;;20.00;99.90;;;;;;6012913;23;20058;-91
2023/07/17 06:41:29;;;;;;;3.15;2.95;;;19.90;99.90;;;;;;6060542;23;20069;-88
2023/07/17 06:43:55;;;;;;;3.22;3.03;;;19.70;99.90;;;;;;6059993;23;20477;-84
2023/07/17 06:46:24;;;;;;;2.95;2.75;;;19.60;99.90;;;;;;6014381;23;20014;-87
2023/07/17 06:48:49;;;;;;;2.83;2.65;;;19.90;99.90;;;;;;6059956;23;20027;-83
2023/07/17 06:51:26;;;;;;;2.55;2.45;;;20.10;99.90;;;;;;6060585;23;20038;-91
2023/07/17 06:53:55;;;;;;;2.55;2.45;;;20.40;99.90;;;;;;6013109;23;20403;-85
2023/07/17 06:56:24;;;;;;;2.47;2.38;;;20.20;99.90;;;;;;6035928;23;20022;-86
2023/07/17 06:58:52;;;;;;;2.30;2.20;;;19.90;99.90;;;;;;6060007;23;20026;-85
2023/07/17 07:01:18;;;;;;;2.08;1.98;;;20.10;99.90;;;;;;6035493;23;20026;-86
2023/07/17 07:03:46;;;;;;;2.00;1.90;;;20.40;99.90;;;;;;6034354;23;20029;-83
2023/07/17 07:06:12;;;;;;;2.15;2.05;;;20.40;99.90;;;;;;6036199;23;20069;-85
2023/07/17 07:08:53;;;;;;;2.03;1.92;;;20.40;99.90;;;;;;6035787;23;20046;-86
2023/07/17 07:11:22;;;;;;;1.85;1.75;;;20.20;99.90;;;;;;6060192;23;20117;-87
2023/07/17 07:13:53;;;;;;;1.75;1.65;;;20.60;99.90;;;;;;6058974;23;20174;-86
2023/07/17 07:16:22;;;;;;;1.75;1.65;;;20.50;99.90;;;;;;6036686;23;20023;-84
2023/07/17 07:18:59;;;;;;;2.00;1.90;;;20.50;99.90;;;;;;6008803;23;20424;-87
2023/07/17 07:21:40;;;;;;;1.77;1.67;;;20.20;99.90;;;;;;6036522;23;20025;-95
2023/07/17 07:24:15;;;;;;;1.77;1.67;;;20.20;99.90;;;;;;6011005;23;20517;-89
2023/07/17 07:26:50;;;;;;;1.70;1.60;;;20.10;99.90;;;;;;6013157;23;20018;-88
2023/07/17 07:29:19;;;;;;;1.70;1.60;;;20.00;99.90;;;;;;6013465;23;20014;-89
2023/07/17 07:31:51;;;;;;;1.70;1.60;;;19.70;99.90;;;;;;6012184;23;20022;-88
2023/07/17 07:34:28;;;;;;;1.70;1.60;;;20.20;99.90;;;;;;6062472;23;20018;-91
2023/07/17 07:36:56;;;;;;;1.80;1.70;;;20.20;99.90;;;;;;6011860;23;20019;-86
2023/07/17 07:39:25;;;;;;;1.80;1.70;;;19.80;99.90;;;;;;6037490;23;20031;-91
2023/07/17 07:41:54;;;;;;;1.67;1.58;;;19.70;99.90;;;;;;6012495;23;20047;-90
2023/07/17 07:44:19;;;;;;;1.75;1.65;;;19.30;99.90;;;;;;6010936;23;20247;-89
2023/07/17 07:46:57;;;;;;;1.80;1.70;;;19.70;99.90;;;;;;6032228;23;20468;-89
2023/07/17 07:49:26;;;;;;;1.75;1.65;;;20.30;99.90;;;;;;6036968;23;20027;-92
2023/07/17 07:51:57;;;;;;;1.70;1.60;;;20.10;99.90;;;;;;6060794;23;20463;-88
2023/07/17 07:54:33;;;;;;;1.70;1.60;;;19.70;99.90;;;;;;6034431;23;20030;-89
2023/07/17 07:57:12;;;;;;;1.70;1.60;;;19.60;99.90;;;;;;6012577;23;20023;-90
2023/07/17 08:00:33;;;;;;;1.88;1.77;;;19.40;99.90;;;;;;6017301;23;20023;-95
2023/07/17 08:03:21;;;;;;;1.90;1.80;;;19.70;99.90;;;;;;6002218;23;20074;-90
2023/07/17 08:05:47;;;;;;;1.77;1.67;;;20.00;99.90;;;;;;6009492;23;20018;-85
2023/07/17 08:08:13;;;;;;;1.65;1.55;;;20.60;99.90;;;;;;6009315;23;20101;-81
2023/07/17 08:10:50;;;;;;;1.63;1.52;;;20.30;99.90;;;;;;6057079;23;20093;-91
2023/07/17 08:13:22;;;;;;;1.67;1.58;;;20.90;99.90;;;;;;6060307;23;20018;-94
2023/07/17 08:16:03;;;;;;;1.60;1.50;;;20.70;99.90;;;;;;6011933;23;20018;-96
2023/07/17 08:19:07;;;;;;;1.30;1.30;;;21.00;99.90;;;;;;6012949;23;20030;-94
2023/07/17 08:21:32;;;;;;;1.25;1.25;;;21.80;99.90;;;;;;6037593;23;20466;-91
2023/07/17 08:23:58;;;;;;;1.55;1.45;;;22.00;99.90;;;;;;6012459;23;20027;-86
2023/07/17 08:26:27;;;;;;;1.38;1.35;;;22.10;99.90;;;;;;6036412;23;20022;-89
2023/07/17 08:28:53;;;;;;;1.73;1.63;;;21.80;99.90;;;;;;6013312;23;20029;-85
2023/07/17 08:31:21;;;;;;;1.45;1.38;;;21.80;99.90;;;;;;6036087;23;20057;-84
2023/07/17 08:33:49;;;;;;;1.63;1.52;;;21.70;99.90;;;;;;6062428;23;20054;-89
2023/07/17 08:36:15;;;;;;;1.58;1.48;;;21.40;99.90;;;;;;6061616;23;20073;-89
2023/07/17 08:38:40;;;;;;;1.73;1.63;;;20.90;99.90;;;;;;6037745;23;20022;-87
2023/07/17 08:41:07;;;;;;;1.55;1.45;;;20.20;99.90;;;;;;6060840;23;20606;-83
2023/07/17 08:43:39;;;;;;;1.30;1.30;;;20.20;99.90;;;;;;6060279;23;20358;-90
2023/07/17 08:46:05;;;;;;;1.50;1.40;;;21.00;99.90;;;;;;6035007;23;20054;-88
2023/07/17 08:48:40;;;;;;;1.25;1.25;;;21.00;99.90;;;;;;6038271;23;20019;-89
2023/07/17 08:51:08;;;;;;;1.58;1.48;;;20.90;99.90;;;;;;6059812;23;20059;-84
2023/07/17 08:53:43;;;;;;;1.38;1.35;;;20.90;99.90;;;;;;6060355;23;20157;-84
2023/07/17 08:56:11;;;;;;;1.55;1.45;;;20.90;99.90;;;;;;6013334;23;20117;-82
2023/07/17 08:58:46;;;;;;;1.70;1.60;;;20.70;99.90;;;;;;6061262;23;20023;-89
2023/07/17 09:01:17;;;;;;;1.70;1.60;;;20.80;99.90;;;;;;6037997;23;20022;-89
2023/07/17 09:03:43;;;;;;;1.50;1.40;;;20.60;99.90;;;;;;6036108;23;20082;-88
2023/07/17 09:06:27;;;;;;;1.50;1.40;;;21.40;99.90;;;;;;6039838;23;20026;-90
2023/07/17 09:08:56;;;;;;;1.45;1.35;;;21.60;99.90;;;;;;6037491;23;20027;-89
2023/07/17 09:11:45;;;;;;;1.30;1.30;;;21.10;99.90;;;;;;6016969;23;20033;-86
2023/07/17 09:14:22;;;;;;;1.63;1.52;;;21.00;99.90;;;;;;6037495;23;20018;-91
2023/07/17 09:16:49;;;;;;;1.30;1.30;;;21.10;99.90;;;;;;6060632;23;20051;-84
2023/07/17 09:19:39;;;;;;;1.50;1.40;;;20.90;99.90;;;;;;6037300;23;20023;-91
2023/07/17 09:22:08;;;;;;;1.50;1.40;;;21.70;99.90;;;;;;6013311;23;20030;-88
2023/07/17 09:24:36;;;;;;;1.50;1.40;;;22.10;99.90;;;;;;6036190;23;20023;-86
2023/07/17 09:27:06;;;;;;;1.60;1.50;;;21.70;99.90;;;;;;6037523;23;20018;-91
2023/07/17 09:29:44;;;;;;;1.50;1.40;;;22.40;99.90;;;;;;6037568;23;20026;-82
2023/07/17 09:32:36;;;;;;;1.30;1.30;;;21.70;99.90;;;;;;6036248;23;20102;-84
2023/07/17 09:35:23;;;;;;;1.20;1.20;;;21.40;99.90;;;;;;6031964;23;20352;-88
2023/07/17 09:37:57;;;;;;;1.27;1.27;;;21.40;99.90;;;;;;6014593;23;20077;-89
2023/07/17 09:40:29;;;;;;;1.30;1.30;;;21.70;99.90;;;;;;6061569;23;20346;-88
2023/07/17 09:42:55;;;;;;;1.20;1.20;;;21.40;99.90;;;;;;6011986;23;20018;-84
2023/07/17 09:45:27;;;;;;;1.20;1.20;;;21.00;99.90;;;;;;6036703;23;20023;-86
2023/07/17 09:48:00;;;;;;;1.17;1.17;;;21.10;99.90;;;;;;6010759;23;20023;-87
2023/07/17 09:50:27;;;;;;;1.17;1.17;;;20.80;99.90;;;;;;6036430;23;20019;-84
2023/07/17 09:52:53;;;;;;;1.27;1.27;;;19.30;99.90;;;;;;6036020;23;20031;-83
2023/07/17 09:55:29;;;;;;;1.30;1.30;;;18.60;99.90;;;;;;6036775;23;20046;-83
2023/07/17 09:57:59;;;;;;;1.50;1.40;;;18.30;99.90;;;;;;6036439;23;20054;-83
2023/07/17 10:00:26;;;;;;;1.70;1.60;;;18.20;99.90;;;;;;6012954;23;20071;-84
2023/07/17 10:03:06;;;;;;;1.75;1.65;;;18.10;99.90;;;;;;6035624;23;20358;-84
2023/07/17 10:05:33;;;;;;;1.98;1.88;;;18.20;99.90;;;;;;6035072;23;20034;-82
2023/07/17 10:08:01;;;;;;;2.22;2.13;;;18.20;99.90;;;;;;6059238;23;20026;-83
2023/07/17 10:10:26;;;;;;;2.15;2.05;;;18.10;99.90;;;;;;6035663;23;20045;-82
2023/07/17 10:12:53;;;;;;;2.55;2.45;;;18.10;99.90;;;;;;6059418;23;20380;-83
2023/07/17 10:15:19;;;;;;;2.33;2.22;;;18.40;99.90;;;;;;6036279;23;20417;-83
2023/07/17 10:17:56;;;;;;;2.40;2.30;;;19.20;99.90;;;;;;6036165;23;20023;-84
2023/07/17 10:20:21;;;;;;;2.30;2.20;;;19.80;99.90;;;;;;6035892;23;20029;-84
2023/07/17 10:22:50;;;;;;;2.20;2.10;;;20.10;99.90;;;;;;6059119;23;20019;-84
2023/07/17 10:25:18;;;;;;;1.90;1.80;;;20.40;99.90;;;;;;6059655;23;20022;-83
2023/07/17 10:27:59;;;;;;;1.85;1.75;;;20.70;99.90;;;;;;6011948;23;20033;-85
2023/07/17 10:30:35;;;;;;;1.80;1.70;;;20.90;99.90;;;;;;6012086;23;20027;-86
2023/07/17 10:33:10;;;;;;;1.98;1.88;;;21.10;99.90;;;;;;6058855;23;20160;-87
2023/07/17 10:35:46;;;;;;;1.58;1.48;;;21.40;99.90;;;;;;6036305;23;20019;-88
2023/07/17 10:38:38;;;;;;;1.42;1.40;;;21.90;99.90;;;;;;6013391;23;20046;-90
2023/07/17 10:41:13;;;;;;;1.50;1.40;;;22.40;99.90;;;;;;6011357;23;20033;-89
2023/07/17 10:44:01;;;;;;;1.63;1.52;;;22.50;99.90;;;;;;6011194;23;20027;-89
2023/07/17 10:46:39;;;;;;;1.30;1.30;;;22.30;99.90;;;;;;6035468;23;20446;-84
2023/07/17 10:49:32;;;;;;;1.30;1.30;;;22.00;99.90;;;;;;6011248;23;20042;-87
2023/07/17 10:52:05;;;;;;;1.23;1.23;;;21.20;99.90;;;;;;5990312;23;20027;-85
2023/07/17 10:54:54;;;;;;;1.20;1.20;;;20.30;99.90;;;;;;6060977;23;20062;-89
2023/07/17 10:57:21;;;;;;;1.40;1.30;;;19.50;99.90;;;;;;6018647;23;20055;-86
2023/07/17 11:00:07;;;;;;;1.27;1.27;;;19.30;99.90;;;;;;6037232;23;20019;-88
2023/07/17 11:02:35;;;;;;;1.40;1.30;;;19.10;99.90;;;;;;6035490;23;20023;-90
2023/07/17 11:05:07;;;;;;;1.50;1.40;;;19.10;99.90;;;;;;6059174;23;20057;-87
2023/07/17 11:07:42;;;;;;;1.60;1.50;;;19.70;99.90;;;;;;6034809;23;20023;-87
2023/07/17 11:10:12;;;;;;;1.60;1.50;;;20.30;99.90;;;;;;6035673;23;20069;-89
2023/07/17 11:12:51;;;;;;;1.63;1.52;;;20.40;99.90;;;;;;6058889;23;20023;-86
2023/07/17 11:15:32;;;;;;;1.60;1.50;;;21.00;99.90;;;;;;6035991;23;20401;-89
2023/07/17 11:18:08;;;;;;;1.58;1.48;;;21.70;99.90;;;;;;6034844;23;20023;-86
2023/07/17 11:20:47;;;;;;;;;;;;;;;;;;;;;
2023/07/17 11:23:25;;;;;;;1.30;1.30;;;20.70;99.90;;;;;;6036020;23;20094;-86
2023/07/17 11:25:57;;;;;;;1.55;1.45;;;20.60;99.90;;;;;;6037012;23;20014;-88
2023/07/17 11:28:24;;;;;;;1.70;1.60;;;20.20;99.90;;;;;;6036597;23;20438;-91
2023/07/17 11:30:50;;;;;;;1.50;1.40;;;21.40;99.90;;;;;;6035187;23;20027;-89
2023/07/17 11:36:55;;;;;;;1.65;1.55;;;22.60;99.90;;;;;;6009358;23;20034;-94
2023/07/17 11:39:26;;;;;;;1.50;1.40;;;22.80;99.90;;;;;;5972179;23;20448;-88
2023/07/17 11:41:53;;;;;;;1.60;1.50;;;22.50;99.90;;;;;;6012708;23;20046;-84
2023/07/17 11:44:29;;;;;;;1.75;1.65;;;22.10;99.90;;;;;;6060266;23;20354;-91
2023/07/17 11:47:06;;;;;;;1.67;1.58;;;21.80;99.90;;;;;;6013477;23;20030;-89
2023/07/17 11:49:46;;;;;;;1.52;1.42;;;21.50;99.90;;;;;;6015116;23;20019;-89
2023/07/17 11:52:20;;;;;;;1.70;1.60;;;21.30;99.90;;;;;;6010898;23;20026;-90
2023/07/17 11:54:49;;;;;;;1.52;1.42;;;21.00;99.90;;;;;;6058499;23;20339;-88
2023/07/17 11:57:25;;;;;;;1.58;1.48;;;20.80;99.90;;;;;;6060624;23;20023;-89
2023/07/17 12:00:12;;;;;;;1.45;1.38;;;20.50;99.90;;;;;;6013042;23;20078;-90
2023/07/17 12:02:48;;;;;;;1.20;1.20;;;20.60;99.90;;;;;;6013716;23;20030;-94
2023/07/17 12:05:22;;;;;;;1.27;1.27;;;20.50;99.90;;;;;;6014215;23;20069;-91
2023/07/17 12:07:51;;;;;;;1.30;1.30;;;20.50;99.90;;;;;;6012128;23;20027;-93
2023/07/17 12:10:28;;;;;;;1.30;1.30;;;20.30;99.90;;;;;;6009545;23;20026;-88
2023/07/17 12:12:57;;;;;;;1.35;1.35;;;20.20;99.90;;;;;;6030551;23;20069;-87
2023/07/17 12:15:33;;;;;;;1.30;1.30;;;19.80;99.90;;;;;;6033693;23;20059;-87
2023/07/17 12:18:05;;;;;;;1.30;1.30;;;19.50;99.90;;;;;;6058157;23;20102;-87
2023/07/17 12:20:37;;;;;;;1.50;1.40;;;19.10;99.90;;;;;;6009720;23;20162;-88
2023/07/17 12:23:03;;;;;;;1.60;1.50;;;18.90;99.90;;;;;;6033199;23;20355;-90
2023/07/17 12:25:41;;;;;;;2.00;1.90;;;18.60;99.90;;;;;;6001261;23;20030;-84
2023/07/17 12:28:08;;;;;;;2.10;2.00;;;18.40;99.90;;;;;;6057703;23;20380;-88
2023/07/17 12:30:40;;;;;;;2.30;2.20;;;18.50;99.90;;;;;;6033561;23;20019;-87
2023/07/17 12:33:09;;;;;;;2.30;2.20;;;18.50;99.90;;;;;;6032380;23;20029;-83
2023/07/17 12:35:34;;;;;;;2.25;2.15;;;18.50;99.90;;;;;;6057353;23;20027;-89
2023/07/17 12:38:03;;;;;;;2.35;2.25;;;18.50;99.90;;;;;;6032678;23;20101;-87
2023/07/17 12:40:32;;;;;;;2.30;2.20;;;18.60;99.90;;;;;;6035712;23;20521;-86
2023/07/17 12:42:58;;;;;;;2.30;2.20;;;18.80;99.90;;;;;;6055925;23;20098;-88
2023/07/17 12:45:23;;;;;;;2.17;2.08;;;18.90;99.90;;;;;;6011458;23;20050;-87
2023/07/17 12:47:52;;;;;;;2.20;2.10;;;19.10;99.90;;;;;;6011283;23;20067;-88
2023/07/17 12:50:20;;;;;;;2.20;2.10;;;19.10;99.90;;;;;;6033286;23;20362;-89
2023/07/17 12:53:02;;;;;;;2.65;2.53;;;19.10;99.90;;;;;;6008063;23;20027;-86
2023/07/17 12:58:17;;;;;;;2.70;2.55;;;19.40;99.90;;;;;;6027584;23;20023;-90
2023/07/17 13:00:46;;;;;;;2.03;1.92;;;19.30;99.90;;;;;;6009706;23;20134;-91
2023/07/17 13:03:14;;;;;;;2.00;1.90;;;19.30;99.90;;;;;;6060530;23;20197;-91
2023/07/17 13:05:46;;;;;;;2.10;2.00;;;19.40;99.90;;;;;;6011949;23;20027;-94
2023/07/17 13:08:15;;;;;;;2.00;1.90;;;19.10;99.90;;;;;;6010427;23;20026;-90
2023/07/17 13:10:50;;;;;;;2.08;1.98;;;19.00;99.90;;;;;;6059571;23;20019;-93
2023/07/17 13:13:15;;;;;;;2.15;2.05;;;18.80;99.90;;;;;;6010570;23;20030;-90
2023/07/17 13:15:41;;;;;;;2.10;2.00;;;18.60;99.90;;;;;;6057245;23;20022;-88
2023/07/17 13:18:07;;;;;;;2.20;2.10;;;18.50;99.90;;;;;;6031122;23;20565;-80
2023/07/17 13:20:32;;;;;;;2.10;2.00;;;18.20;99.90;;;;;;6058178;23;20059;-82
2023/07/17 13:22:58;;;;;;;2.03;1.92;;;17.40;99.90;;;;;;6033568;23;20019;-88
2023/07/17 13:25:24;;;;;;;2.00;1.90;;;17.00;99.90;;;;;;6033765;23;20027;-83
2023/07/17 13:27:49;;;;;;;1.80;1.70;;;16.70;99.90;;;;;;6056897;23;20033;-83
2023/07/17 13:30:20;;;;;;;1.70;1.60;;;16.40;99.90;;;;;;6057921;23;20023;-85